Harvard, Texas
Current Conditions -  °F | °C
As of 4:55 AM on Sunday 23 Nov 2014 (Local Time) from KOSA Reporting Station
Clear Clear  
Wind Chill: 59°   Ceiling: Unl
Heat Index: 59°   Visibility: 10mi
Dew Point: 59°   Wind: 5mph
Humidity: 99%   Direction: 110°ESE
Pressure: 29.62"   Gusts: NA
Location:  32.9352°N, 94.9553°W
Report Text: KOSA 231055Z AUTO 11004KT 10SM CLR 15/15 A2962 RMK AO1 T01510150
Loading
Personal Weather Stations






























Interactive Weather Map New forecast layout! Learn more

10-Day Weather Forecast

Advertisements
Track Severe Weather on mobile